Santiago De Cuba, Santiago de Cuba Antonio Maceo Airport (MUCU)

NameSantiago de Cuba Antonio Maceo Airport
CitySantiago De Cuba
CountryCuba
ICAOMUCU
IATASCU
Altitude76 m
CoordinatesGoogle Map
Live Air TrafficLiveATC.net
METARMUCU 251650Z 23010KT 9000 SCT020 31/24 Q1017
2020-04-25 16:50:00 Wind: Southwest (230°) 5.14 m/s - Visibility: 9000 m - Temperature: 31 °C - Dew point: 24 °C - Humidity: 66.3% - Pressure: 1017 hPa

Sorry, no flights used the airport in this database.